createdAt,value
2019-05-10T00:00:34.302Z,38.48
2019-05-10T00:03:25.914Z,40.75
2019-05-10T00:06:17.528Z,43.33
2019-05-10T00:08:50.324Z,42.95
2019-05-10T00:11:39.569Z,44.15
2019-05-10T00:14:23.314Z,42.90
2019-05-10T00:17:01.551Z,42.78
2019-05-10T00:19:34.929Z,41.92
2019-05-10T00:22:08.005Z,41.63
2019-05-10T00:24:41.284Z,43.35
2019-05-10T00:27:14.301Z,43.78
2019-05-10T00:29:47.843Z,41.15
2019-05-10T00:32:20.474Z,42.25
2019-05-10T00:34:53.215Z,41.85
2019-05-10T00:37:26.648Z,44.90
2019-05-10T00:40:00.045Z,44.33
2019-05-10T00:42:33.541Z,44.25
2019-05-10T00:45:07.269Z,43.33
2019-05-10T00:47:40.221Z,42.88
2019-05-10T00:50:13.323Z,44.55
2019-05-10T00:52:46.905Z,43.95
2019-05-10T00:55:20.325Z,40.50
2019-05-10T00:57:53.416Z,43.00
2019-05-10T01:00:27.155Z,39.65
2019-05-10T01:02:59.769Z,39.50
2019-05-10T01:05:33.547Z,38.08
2019-05-10T01:08:06.673Z,39.03
2019-05-10T01:10:39.458Z,39.00
2019-05-10T01:13:13.488Z,38.42
2019-05-10T01:15:47.313Z,38.48
2019-05-10T01:18:20.860Z,35.88
2019-05-10T01:20:54.296Z,38.78
2019-05-10T01:23:27.414Z,38.23
2019-05-10T01:26:01.062Z,39.80
2019-05-10T01:28:34.581Z,39.38
2019-05-10T01:31:07.940Z,42.13
2019-05-10T01:33:41.381Z,43.08
2019-05-10T01:36:14.206Z,39.63
2019-05-10T01:38:47.369Z,42.00
2019-05-10T01:41:19.942Z,40.25
2019-05-10T01:43:53.347Z,41.42
2019-05-10T01:46:26.832Z,40.95
2019-05-10T01:49:00.148Z,40.48
2019-05-10T01:51:33.729Z,40.98
2019-05-10T01:54:06.784Z,39.92
2019-05-10T01:56:40.123Z,37.63
2019-05-10T01:59:13.505Z,36.63
2019-05-10T02:01:49.732Z,35.43
2019-05-10T02:04:22.686Z,34.98
2019-05-10T02:06:56.106Z,34.05
2019-05-10T02:09:33.046Z,32.33
2019-05-10T02:12:04.822Z,31.75
2019-05-10T02:14:38.623Z,33.42
2019-05-10T02:17:11.940Z,32.63
2019-05-10T02:19:45.855Z,34.53
2019-05-10T02:22:19.771Z,31.97
2019-05-10T02:24:53.178Z,31.33
2019-05-10T02:27:26.536Z,31.12
2019-05-10T02:29:59.243Z,28.57
2019-05-10T02:32:33.068Z,29.60
2019-05-10T02:35:07.117Z,28.57
2019-05-10T02:37:40.129Z,26.60
2019-05-10T02:40:13.964Z,24.63
2019-05-10T02:42:47.869Z,24.15
2019-05-10T02:45:20.628Z,23.25
2019-05-10T02:47:53.653Z,22.17
2019-05-10T02:50:27.027Z,21.55
2019-05-10T02:53:00.340Z,20.85
2019-05-10T02:55:34.311Z,19.73
2019-05-10T02:58:07.778Z,21.17
2019-05-10T03:00:43.237Z,22.87
2019-05-10T03:03:17.035Z,21.73
2019-05-10T03:05:52.448Z,22.65
2019-05-10T03:08:27.318Z,21.12
2019-05-10T03:11:01.134Z,21.23
2019-05-10T03:13:34.245Z,19.52
2019-05-10T03:16:06.805Z,19.70
2019-05-10T03:18:42.919Z,21.87
2019-05-10T03:21:17.833Z,24.30
2019-05-10T03:23:51.082Z,22.00
2019-05-10T03:26:23.804Z,21.77
2019-05-10T03:28:56.839Z,21.35
2019-05-10T03:31:29.760Z,19.62
2019-05-10T03:34:03.153Z,20.00
2019-05-10T03:36:37.008Z,19.77
2019-05-10T03:39:10.564Z,17.40
2019-05-10T03:41:43.134Z,18.82
2019-05-10T03:44:16.528Z,16.97
2019-05-10T03:46:49.946Z,18.42
2019-05-10T03:49:23.230Z,18.00
2019-05-10T03:51:56.262Z,17.42
2019-05-10T03:54:28.867Z,16.37
2019-05-10T03:57:12.965Z,17.42
2019-05-10T03:59:37.551Z,16.05
2019-05-10T04:02:10.361Z,16.97
2019-05-10T04:04:43.433Z,16.05
2019-05-10T04:07:16.094Z,15.68
2019-05-10T04:09:49.879Z,16.90
2019-05-10T04:12:23.400Z,18.73
2019-05-10T04:14:56.563Z,19.00
2019-05-10T04:17:30.294Z,18.73
2019-05-10T04:20:03.327Z,20.35
2019-05-10T04:22:36.897Z,20.52
2019-05-10T04:25:09.480Z,19.37
2019-05-10T04:27:42.773Z,20.40
2019-05-10T04:30:17.281Z,22.10
2019-05-10T04:32:50.354Z,25.00
2019-05-10T04:35:23.930Z,23.00
2019-05-10T04:37:56.533Z,20.92
2019-05-10T04:40:30.181Z,20.57
2019-05-10T04:43:02.753Z,20.55
2019-05-10T04:45:36.236Z,20.23
2019-05-10T04:48:08.970Z,20.65
2019-05-10T04:50:42.192Z,20.70
2019-05-10T04:53:15.610Z,19.37
2019-05-10T04:55:49.349Z,19.52
2019-05-10T04:58:22.586Z,19.77
2019-05-10T05:00:55.982Z,20.02
2019-05-10T05:03:29.699Z,20.17
2019-05-10T05:06:02.724Z,20.95
2019-05-10T05:08:36.082Z,20.20
2019-05-10T05:11:09.859Z,20.90
2019-05-10T05:13:43.105Z,20.45
2019-05-10T05:16:17.292Z,21.30
2019-05-10T05:18:50.903Z,22.02
2019-05-10T05:21:24.379Z,20.80
2019-05-10T05:23:58.048Z,21.65
2019-05-10T05:26:30.973Z,22.40
2019-05-10T05:29:03.652Z,22.02
2019-05-10T05:31:36.273Z,22.65
2019-05-10T05:34:10.135Z,24.32
2019-05-10T05:36:43.041Z,25.20
2019-05-10T05:39:17.449Z,25.15
2019-05-10T05:41:54.164Z,25.20
2019-05-10T05:44:27.907Z,25.08
2019-05-10T05:47:04.655Z,24.65
2019-05-10T05:49:36.974Z,27.32
2019-05-10T05:52:10.611Z,25.27
2019-05-10T05:54:43.971Z,27.07
2019-05-10T05:57:17.655Z,26.35
2019-05-10T05:59:57.299Z,26.27
2019-05-10T06:02:28.793Z,26.42
2019-05-10T06:05:01.405Z,28.27
2019-05-10T06:07:37.960Z,26.65
2019-05-10T06:10:17.304Z,26.70
2019-05-10T06:12:50.569Z,27.75
2019-05-10T06:15:28.843Z,28.67
2019-05-10T06:18:03.659Z,26.37
2019-05-10T06:20:38.314Z,30.23
2019-05-10T06:23:10.629Z,28.60
2019-05-10T06:25:44.163Z,28.50
2019-05-10T06:28:28.706Z,28.32
2019-05-10T06:30:54.039Z,28.60
2019-05-10T06:33:27.067Z,29.00
2019-05-10T06:35:59.379Z,28.10
2019-05-10T06:38:32.428Z,29.23
2019-05-10T06:41:10.265Z,30.02
2019-05-10T06:43:45.706Z,30.25
2019-05-10T06:46:15.953Z,32.10
2019-05-10T06:48:49.490Z,31.17
2019-05-10T06:51:23.175Z,28.87
2019-05-10T06:53:56.870Z,29.45
2019-05-10T06:56:29.873Z,29.15
2019-05-10T06:59:13.033Z,29.80
2019-05-10T07:01:44.882Z,28.92
2019-05-10T07:04:14.077Z,29.95
2019-05-10T07:06:46.752Z,25.85
2019-05-10T07:09:20.834Z,28.02
2019-05-10T07:11:54.198Z,25.77
2019-05-10T07:14:27.626Z,26.90
2019-05-10T07:17:03.086Z,25.70
2019-05-10T07:19:42.008Z,25.15
2019-05-10T07:22:11.980Z,22.98
2019-05-10T07:24:44.739Z,25.02
2019-05-10T07:27:17.456Z,26.25
2019-05-10T07:29:50.900Z,23.62
2019-05-10T07:32:24.681Z,23.10
2019-05-10T07:35:01.048Z,21.85
2019-05-10T07:37:34.483Z,21.23
2019-05-10T07:40:08.300Z,20.00
2019-05-10T07:42:45.612Z,17.75
2019-05-10T07:45:18.688Z,14.33
2019-05-10T07:47:52.776Z,12.88
2019-05-10T07:50:25.663Z,12.23
2019-05-10T07:52:58.837Z,12.90
2019-05-10T07:55:32.357Z,12.93
2019-05-10T07:58:07.071Z,11.15
2019-05-10T08:00:44.575Z,11.40
2019-05-10T08:03:23.033Z,10.82
2019-05-10T08:05:56.976Z,11.40
2019-05-10T08:08:26.140Z,11.55
2019-05-10T08:10:59.425Z,10.68
2019-05-10T08:13:33.171Z,12.03
2019-05-10T08:16:11.615Z,11.55
2019-05-10T08:18:42.426Z,11.43
2019-05-10T08:21:22.477Z,12.07
2019-05-10T08:23:51.906Z,9.58
2019-05-10T08:26:26.039Z,11.15
2019-05-10T08:29:02.134Z,10.65
2019-05-10T08:31:40.364Z,10.98
2019-05-10T08:34:11.753Z,9.20
2019-05-10T08:36:47.658Z,10.50
2019-05-10T08:39:22.282Z,9.88
2019-05-10T08:42:03.988Z,10.68
2019-05-10T08:44:29.800Z,8.80
2019-05-10T08:47:07.623Z,7.75
2019-05-10T08:49:53.902Z,8.15
2019-05-10T08:52:19.387Z,6.80
2019-05-10T08:54:50.138Z,7.75
2019-05-10T08:57:22.359Z,7.75
2019-05-10T09:00:06.595Z,7.53
2019-05-10T09:02:32.781Z,6.60
2019-05-10T09:05:05.058Z,7.22
2019-05-10T09:07:39.185Z,7.00
2019-05-10T09:10:12.778Z,6.25
2019-05-10T09:12:50.877Z,5.60
2019-05-10T09:15:22.310Z,5.62
2019-05-10T09:17:58.327Z,4.55
2019-05-10T09:20:31.808Z,4.47
2019-05-10T09:23:08.720Z,5.10
2019-05-10T09:25:42.591Z,4.70
2019-05-10T09:28:17.100Z,4.22
2019-05-10T09:30:57.546Z,4.13
2019-05-10T09:33:24.483Z,4.57
2019-05-10T09:35:59.303Z,5.50
2019-05-10T09:38:37.129Z,5.00
2019-05-10T09:41:07.759Z,4.20
2019-05-10T09:43:48.503Z,4.33
2019-05-10T09:46:16.235Z,4.37
2019-05-10T09:48:54.568Z,3.70
2019-05-10T09:51:30.096Z,3.60
2019-05-10T09:54:00.600Z,3.58
2019-05-10T09:56:39.639Z,3.92
2019-05-10T09:59:10.723Z,3.98
2019-05-10T10:01:43.696Z,4.00
2019-05-10T10:04:17.872Z,4.58
2019-05-10T10:06:52.935Z,4.20
2019-05-10T10:09:33.908Z,4.72
2019-05-10T10:12:03.169Z,5.10
2019-05-10T10:14:39.323Z,4.60
2019-05-10T10:17:12.903Z,4.80
2019-05-10T10:19:47.998Z,4.28
2019-05-10T10:22:21.621Z,3.75
2019-05-10T10:24:58.356Z,3.40
2019-05-10T10:27:34.493Z,3.20
2019-05-10T10:30:06.593Z,3.60
2019-05-10T10:32:44.426Z,2.92
2019-05-10T10:35:26.132Z,3.00
2019-05-10T10:37:57.590Z,2.60
2019-05-10T10:40:35.325Z,2.50
2019-05-10T10:43:07.469Z,2.37
2019-05-10T10:45:40.808Z,2.90
2019-05-10T10:48:14.339Z,2.20
2019-05-10T10:50:51.245Z,2.37
2019-05-10T10:53:22.763Z,2.00
2019-05-10T10:56:00.869Z,2.17
2019-05-10T10:58:31.085Z,2.43
2019-05-10T11:01:10.731Z,2.20
2019-05-10T11:03:40.315Z,1.87
2019-05-10T11:06:15.431Z,2.00
2019-05-10T11:08:51.678Z,1.87
2019-05-10T11:11:24.358Z,1.57
2019-05-10T11:14:04.815Z,1.70
2019-05-10T11:16:33.659Z,1.87
2019-05-10T11:19:11.485Z,2.27
2019-05-10T11:21:41.890Z,2.10
2019-05-10T11:24:17.920Z,2.20
2019-05-10T11:26:51.711Z,2.17
2019-05-10T11:29:28.046Z,2.60
2019-05-10T11:32:15.193Z,2.33
2019-05-10T11:34:38.975Z,2.10
2019-05-10T11:37:14.775Z,2.07
2019-05-10T11:39:50.315Z,2.33
2019-05-10T11:42:25.085Z,2.17
2019-05-10T11:45:00.814Z,1.90
2019-05-10T11:47:34.551Z,2.20
2019-05-10T11:50:10.468Z,2.50
2019-05-10T11:52:43.875Z,1.83
2019-05-10T11:55:17.480Z,2.10
2019-05-10T11:58:02.083Z,2.00
2019-05-10T12:00:31.290Z,2.93
2019-05-10T12:03:07.756Z,2.40
2019-05-10T12:05:37.976Z,2.40
2019-05-10T12:08:12.995Z,2.30
2019-05-10T12:10:53.071Z,3.07
2019-05-10T12:13:25.004Z,6.17
2019-05-10T12:15:56.877Z,5.00
2019-05-10T12:18:32.420Z,2.57
2019-05-10T12:21:09.582Z,2.53
2019-05-10T12:23:50.386Z,2.23
2019-05-10T12:28:52.572Z,2.70
2019-05-10T12:31:25.619Z,3.00
2019-05-10T12:34:02.554Z,2.70
2019-05-10T12:36:35.005Z,2.83
2019-05-10T12:39:11.564Z,3.13
2019-05-10T12:41:47.798Z,3.40
2019-05-10T12:44:20.093Z,2.80
2019-05-10T12:46:54.481Z,2.73
2019-05-10T12:49:28.093Z,2.83
2019-05-10T12:52:03.346Z,2.90
2019-05-10T12:54:36.442Z,3.20
2019-05-10T12:57:09.844Z,3.17
2019-05-10T12:59:43.136Z,3.77
2019-05-10T13:02:24.442Z,3.27
2019-05-10T13:04:58.124Z,3.87
2019-05-10T13:07:31.124Z,5.10
2019-05-10T13:10:07.744Z,3.73
2019-05-10T13:12:44.191Z,3.90
2019-05-10T13:15:15.720Z,3.77
2019-05-10T13:17:51.226Z,4.00
2019-05-10T13:20:24.554Z,4.67
2019-05-10T13:22:56.990Z,4.17
2019-05-10T13:25:30.477Z,3.83
2019-05-10T13:28:11.054Z,4.43
2019-05-10T13:30:40.168Z,4.10
2019-05-10T13:33:27.710Z,4.00
2019-05-10T13:35:50.841Z,4.90
2019-05-10T13:38:24.078Z,4.40
2019-05-10T13:40:57.321Z,4.57
2019-05-10T13:43:30.105Z,3.87
2019-05-10T13:46:03.348Z,4.60
2019-05-10T13:48:38.299Z,4.70
2019-05-10T13:51:11.355Z,4.40
2019-05-10T13:53:45.143Z,4.60
2019-05-10T13:56:18.349Z,3.60
2019-05-10T13:58:51.428Z,4.13
2019-05-10T14:01:24.518Z,4.23
2019-05-10T14:04:01.152Z,4.20
2019-05-10T14:06:33.542Z,4.10
2019-05-10T14:09:07.417Z,5.17
2019-05-10T14:11:46.658Z,7.03
2019-05-10T14:14:20.541Z,4.30
2019-05-10T14:16:51.467Z,3.57
2019-05-10T14:19:25.407Z,3.90
2019-05-10T14:21:59.071Z,3.90
2019-05-10T14:24:34.885Z,3.83
2019-05-10T14:27:08.046Z,4.07
2019-05-10T14:29:41.119Z,3.57
2019-05-10T14:32:14.296Z,3.90
2019-05-10T14:34:48.301Z,3.90
2019-05-10T14:37:21.747Z,3.97
2019-05-10T14:39:54.540Z,4.13
2019-05-10T14:42:31.301Z,3.90
2019-05-10T14:45:03.267Z,4.77
2019-05-10T14:47:46.313Z,3.37
2019-05-10T14:50:12.962Z,3.60
2019-05-10T14:52:46.750Z,3.63
2019-05-10T14:55:19.899Z,3.70
2019-05-10T14:57:52.977Z,3.40
2019-05-10T15:00:25.702Z,4.13
2019-05-10T15:03:02.069Z,3.33
2019-05-10T15:05:36.483Z,3.37
2019-05-10T15:08:09.311Z,3.40
2019-05-10T15:10:42.732Z,4.03
2019-05-10T15:13:19.802Z,3.40
2019-05-10T15:15:51.156Z,4.20
2019-05-10T15:18:25.227Z,4.57
2019-05-10T15:20:58.782Z,4.17
2019-05-10T15:23:32.696Z,3.60
2019-05-10T15:26:11.484Z,3.60
2019-05-10T15:28:42.588Z,4.27
2019-05-10T15:31:15.890Z,3.90
2019-05-10T15:33:48.942Z,3.80
2019-05-10T15:36:23.716Z,4.13
2019-05-10T15:38:57.380Z,4.00
2019-05-10T15:41:30.773Z,3.10
2019-05-10T15:44:04.368Z,3.73
2019-05-10T15:46:41.979Z,3.63
2019-05-10T15:49:16.838Z,4.00
2019-05-10T15:51:54.616Z,4.90
2019-05-10T15:54:24.128Z,4.00
2019-05-10T15:56:56.746Z,3.93
2019-05-10T15:59:30.113Z,3.30
2019-05-10T16:02:03.488Z,3.70
2019-05-10T16:04:37.728Z,4.40
2019-05-10T16:07:14.615Z,4.40
2019-05-10T16:09:50.024Z,3.73
2019-05-10T16:12:22.657Z,4.53
2019-05-10T16:14:57.448Z,3.93
2019-05-10T16:17:30.326Z,4.10
2019-05-10T16:20:04.195Z,4.37
2019-05-10T16:22:37.747Z,6.27
2019-05-10T16:25:10.792Z,5.00
